sensor_id;sensor_type;location;lat;lon;timestamp;temperature;humidity
24164;DHT22;12319;49.204;8.116;2023-04-28T00:00:26;14.90;60.00
24164;DHT22;12319;49.204;8.116;2023-04-28T00:02:52;15.10;60.40
24164;DHT22;12319;49.204;8.116;2023-04-28T00:05:18;14.90;60.70
24164;DHT22;12319;49.204;8.116;2023-04-28T00:07:44;14.90;60.70
24164;DHT22;12319;49.204;8.116;2023-04-28T00:10:10;14.90;61.30
24164;DHT22;12319;49.204;8.116;2023-04-28T00:12:35;14.80;61.30
24164;DHT22;12319;49.204;8.116;2023-04-28T00:15:01;14.80;62.00
24164;DHT22;12319;49.204;8.116;2023-04-28T00:17:26;14.80;62.70
24164;DHT22;12319;49.204;8.116;2023-04-28T00:19:52;14.70;62.60
24164;DHT22;12319;49.204;8.116;2023-04-28T00:22:17;14.70;63.20
24164;DHT22;12319;49.204;8.116;2023-04-28T00:24:43;14.60;63.50
24164;DHT22;12319;49.204;8.116;2023-04-28T00:27:09;14.60;64.00
24164;DHT22;12319;49.204;8.116;2023-04-28T00:29:35;14.70;64.30
24164;DHT22;12319;49.204;8.116;2023-04-28T00:32:01;14.40;64.40
24164;DHT22;12319;49.204;8.116;2023-04-28T00:34:27;14.40;64.50
24164;DHT22;12319;49.204;8.116;2023-04-28T00:36:56;14.50;64.90
24164;DHT22;12319;49.204;8.116;2023-04-28T00:39:21;14.40;65.00
24164;DHT22;12319;49.204;8.116;2023-04-28T00:41:47;14.40;65.20
24164;DHT22;12319;49.204;8.116;2023-04-28T00:44:13;14.40;65.60
24164;DHT22;12319;49.204;8.116;2023-04-28T00:46:38;14.30;66.20
24164;DHT22;12319;49.204;8.116;2023-04-28T00:49:04;14.30;67.20
24164;DHT22;12319;49.204;8.116;2023-04-28T00:51:30;14.30;67.00
24164;DHT22;12319;49.204;8.116;2023-04-28T00:53:58;14.20;67.10
24164;DHT22;12319;49.204;8.116;2023-04-28T00:56:23;14.20;67.10
24164;DHT22;12319;49.204;8.116;2023-04-28T00:58:52;14.20;67.40
24164;DHT22;12319;49.204;8.116;2023-04-28T01:01:17;14.20;67.60
24164;DHT22;12319;49.204;8.116;2023-04-28T01:03:43;14.20;67.80
24164;DHT22;12319;49.204;8.116;2023-04-28T01:06:10;14.20;68.00
24164;DHT22;12319;49.204;8.116;2023-04-28T01:08:37;14.20;68.20
24164;DHT22;12319;49.204;8.116;2023-04-28T01:11:02;14.20;68.60
24164;DHT22;12319;49.204;8.116;2023-04-28T01:13:28;14.20;68.70
24164;DHT22;12319;49.204;8.116;2023-04-28T01:15:54;14.20;68.80
24164;DHT22;12319;49.204;8.116;2023-04-28T01:18:21;14.20;69.10
24164;DHT22;12319;49.204;8.116;2023-04-28T01:20:46;14.20;69.50
24164;DHT22;12319;49.204;8.116;2023-04-28T01:23:13;14.20;69.60
24164;DHT22;12319;49.204;8.116;2023-04-28T01:25:39;14.50;70.20
24164;DHT22;12319;49.204;8.116;2023-04-28T01:28:05;14.20;69.80
24164;DHT22;12319;49.204;8.116;2023-04-28T01:30:31;14.20;69.90
24164;DHT22;12319;49.204;8.116;2023-04-28T01:32:56;14.20;70.00
24164;DHT22;12319;49.204;8.116;2023-04-28T01:35:22;14.20;70.20
24164;DHT22;12319;49.204;8.116;2023-04-28T01:37:48;14.20;70.40
24164;DHT22;12319;49.204;8.116;2023-04-28T01:40:13;14.20;70.70
24164;DHT22;12319;49.204;8.116;2023-04-28T01:42:39;14.30;71.10
24164;DHT22;12319;49.204;8.116;2023-04-28T01:45:05;14.30;71.70
24164;DHT22;12319;49.204;8.116;2023-04-28T01:47:31;14.20;71.90
24164;DHT22;12319;49.204;8.116;2023-04-28T01:49:56;14.20;72.30
24164;DHT22;12319;49.204;8.116;2023-04-28T01:52:22;14.20;72.30
24164;DHT22;12319;49.204;8.116;2023-04-28T01:54:49;14.20;72.90
24164;DHT22;12319;49.204;8.116;2023-04-28T01:57:15;14.20;73.10
24164;DHT22;12319;49.204;8.116;2023-04-28T01:59:40;14.20;73.40
24164;DHT22;12319;49.204;8.116;2023-04-28T02:02:06;14.20;73.60
24164;DHT22;12319;49.204;8.116;2023-04-28T02:04:31;14.10;73.90
24164;DHT22;12319;49.204;8.116;2023-04-28T02:06:57;14.10;74.10
24164;DHT22;12319;49.204;8.116;2023-04-28T02:09:23;14.10;74.60
24164;DHT22;12319;49.204;8.116;2023-04-28T02:11:49;14.10;74.60
24164;DHT22;12319;49.204;8.116;2023-04-28T02:14:14;14.10;74.90
24164;DHT22;12319;49.204;8.116;2023-04-28T02:16:40;14.00;75.00
24164;DHT22;12319;49.204;8.116;2023-04-28T02:19:05;14.00;75.40
24164;DHT22;12319;49.204;8.116;2023-04-28T02:21:31;14.00;75.60
24164;DHT22;12319;49.204;8.116;2023-04-28T02:23:57;14.00;76.10
24164;DHT22;12319;49.204;8.116;2023-04-28T02:26:22;13.90;75.80
24164;DHT22;12319;49.204;8.116;2023-04-28T02:28:48;13.90;75.90
24164;DHT22;12319;49.204;8.116;2023-04-28T02:31:14;13.80;76.00
24164;DHT22;12319;49.204;8.116;2023-04-28T02:33:40;13.70;76.20
24164;DHT22;12319;49.204;8.116;2023-04-28T02:36:07;13.70;76.70
24164;DHT22;12319;49.204;8.116;2023-04-28T02:38:33;13.70;77.10
24164;DHT22;12319;49.204;8.116;2023-04-28T02:41:03;13.70;77.30
24164;DHT22;12319;49.204;8.116;2023-04-28T02:43:30;13.60;77.60
24164;DHT22;12319;49.204;8.116;2023-04-28T02:45:56;13.60;77.50
24164;DHT22;12319;49.204;8.116;2023-04-28T02:48:25;13.50;77.60
24164;DHT22;12319;49.204;8.116;2023-04-28T02:50:51;13.50;77.90
24164;DHT22;12319;49.204;8.116;2023-04-28T02:53:18;13.50;77.90
24164;DHT22;12319;49.204;8.116;2023-04-28T02:55:44;13.60;78.90
24164;DHT22;12319;49.204;8.116;2023-04-28T02:58:09;13.50;78.40
24164;DHT22;12319;49.204;8.116;2023-04-28T03:00:35;13.60;78.90
24164;DHT22;12319;49.204;8.116;2023-04-28T03:03:01;13.50;79.00
24164;DHT22;12319;49.204;8.116;2023-04-28T03:05:26;13.50;79.10
24164;DHT22;12319;49.204;8.116;2023-04-28T03:07:52;13.50;79.20
24164;DHT22;12319;49.204;8.116;2023-04-28T03:10:18;13.50;79.40
24164;DHT22;12319;49.204;8.116;2023-04-28T03:12:44;13.60;79.80
24164;DHT22;12319;49.204;8.116;2023-04-28T03:15:09;13.60;80.10
24164;DHT22;12319;49.204;8.116;2023-04-28T03:17:35;13.50;80.10
24164;DHT22;12319;49.204;8.116;2023-04-28T03:20:04;13.60;80.40
24164;DHT22;12319;49.204;8.116;2023-04-28T03:22:30;13.50;80.70
24164;DHT22;12319;49.204;8.116;2023-04-28T03:24:55;13.60;81.10
24164;DHT22;12319;49.204;8.116;2023-04-28T03:27:21;13.50;81.40
24164;DHT22;12319;49.204;8.116;2023-04-28T03:29:46;13.40;81.50
24164;DHT22;12319;49.204;8.116;2023-04-28T03:32:12;13.40;81.50
24164;DHT22;12319;49.204;8.116;2023-04-28T03:34:38;13.40;81.80
24164;DHT22;12319;49.204;8.116;2023-04-28T03:37:03;13.30;81.90
24164;DHT22;12319;49.204;8.116;2023-04-28T03:39:29;13.30;82.10
24164;DHT22;12319;49.204;8.116;2023-04-28T03:41:55;13.30;82.30
24164;DHT22;12319;49.204;8.116;2023-04-28T03:44:20;13.30;82.60
24164;DHT22;12319;49.204;8.116;2023-04-28T03:46:47;13.30;82.80
24164;DHT22;12319;49.204;8.116;2023-04-28T03:49:13;13.30;83.00
24164;DHT22;12319;49.204;8.116;2023-04-28T03:51:38;13.40;83.40
24164;DHT22;12319;49.204;8.116;2023-04-28T03:54:04;13.40;83.60
24164;DHT22;12319;49.204;8.116;2023-04-28T03:56:29;13.40;83.70
24164;DHT22;12319;49.204;8.116;2023-04-28T03:58:55;13.40;84.00
24164;DHT22;12319;49.204;8.116;2023-04-28T04:01:21;13.40;84.00
24164;DHT22;12319;49.204;8.116;2023-04-28T04:03:46;13.40;84.10
24164;DHT22;12319;49.204;8.116;2023-04-28T04:06:12;13.40;84.30
24164;DHT22;12319;49.204;8.116;2023-04-28T04:08:38;13.40;84.40
24164;DHT22;12319;49.204;8.116;2023-04-28T04:11:04;13.40;84.40
24164;DHT22;12319;49.204;8.116;2023-04-28T04:13:29;13.50;84.60
24164;DHT22;12319;49.204;8.116;2023-04-28T04:15:55;13.50;84.70
24164;DHT22;12319;49.204;8.116;2023-04-28T04:18:20;13.50;85.10
24164;DHT22;12319;49.204;8.116;2023-04-28T04:20:46;13.50;85.00
24164;DHT22;12319;49.204;8.116;2023-04-28T04:23:11;13.50;85.30
24164;DHT22;12319;49.204;8.116;2023-04-28T04:25:37;13.50;86.00
24164;DHT22;12319;49.204;8.116;2023-04-28T04:28:03;13.50;85.90
24164;DHT22;12319;49.204;8.116;2023-04-28T04:30:28;13.50;85.80
24164;DHT22;12319;49.204;8.116;2023-04-28T04:32:54;13.50;85.90
24164;DHT22;12319;49.204;8.116;2023-04-28T04:35:19;13.50;86.20
24164;DHT22;12319;49.204;8.116;2023-04-28T04:37:45;13.50;86.00
24164;DHT22;12319;49.204;8.116;2023-04-28T04:40:10;13.50;86.10
24164;DHT22;12319;49.204;8.116;2023-04-28T04:42:36;13.50;86.30
24164;DHT22;12319;49.204;8.116;2023-04-28T04:45:02;13.50;86.30
24164;DHT22;12319;49.204;8.116;2023-04-28T04:47:27;13.60;86.60
24164;DHT22;12319;49.204;8.116;2023-04-28T04:49:53;13.60;87.10
24164;DHT22;12319;49.204;8.116;2023-04-28T04:52:18;13.60;87.30
24164;DHT22;12319;49.204;8.116;2023-04-28T04:54:44;13.60;87.20
24164;DHT22;12319;49.204;8.116;2023-04-28T04:57:11;13.50;87.10
24164;DHT22;12319;49.204;8.116;2023-04-28T04:59:36;13.50;87.20
24164;DHT22;12319;49.204;8.116;2023-04-28T05:02:02;13.50;87.40
24164;DHT22;12319;49.204;8.116;2023-04-28T05:04:27;13.50;87.50
24164;DHT22;12319;49.204;8.116;2023-04-28T05:06:53;13.50;87.70
24164;DHT22;12319;49.204;8.116;2023-04-28T05:09:19;13.60;88.10
24164;DHT22;12319;49.204;8.116;2023-04-28T05:11:44;13.60;88.90
24164;DHT22;12319;49.204;8.116;2023-04-28T05:14:10;13.50;88.20
24164;DHT22;12319;49.204;8.116;2023-04-28T05:16:37;13.50;88.90
24164;DHT22;12319;49.204;8.116;2023-04-28T05:19:03;13.50;90.00
24164;DHT22;12319;49.204;8.116;2023-04-28T05:21:29;13.40;90.20
24164;DHT22;12319;49.204;8.116;2023-04-28T05:23:55;13.40;90.50
24164;DHT22;12319;49.204;8.116;2023-04-28T05:26:22;13.30;90.30
24164;DHT22;12319;49.204;8.116;2023-04-28T05:28:47;13.30;90.50
24164;DHT22;12319;49.204;8.116;2023-04-28T05:31:13;13.30;90.70
24164;DHT22;12319;49.204;8.116;2023-04-28T05:33:38;13.30;90.80
24164;DHT22;12319;49.204;8.116;2023-04-28T05:36:04;13.30;90.90
24164;DHT22;12319;49.204;8.116;2023-04-28T05:38:30;13.30;91.00
24164;DHT22;12319;49.204;8.116;2023-04-28T05:40:57;13.40;91.10
24164;DHT22;12319;49.204;8.116;2023-04-28T05:43:22;13.40;91.20
24164;DHT22;12319;49.204;8.116;2023-04-28T05:45:48;13.40;91.30
24164;DHT22;12319;49.204;8.116;2023-04-28T05:48:13;13.70;91.40
24164;DHT22;12319;49.204;8.116;2023-04-28T05:50:39;13.40;91.40
24164;DHT22;12319;49.204;8.116;2023-04-28T05:53:05;13.50;91.50
24164;DHT22;12319;49.204;8.116;2023-04-28T05:55:32;13.60;91.60
24164;DHT22;12319;49.204;8.116;2023-04-28T05:57:58;13.60;91.70
24164;DHT22;12319;49.204;8.116;2023-04-28T06:00:24;13.60;92.50
24164;DHT22;12319;49.204;8.116;2023-04-28T06:02:50;13.60;92.60
24164;DHT22;12319;49.204;8.116;2023-04-28T06:05:16;13.60;92.40
24164;DHT22;12319;49.204;8.116;2023-04-28T06:07:41;13.60;92.90
24164;DHT22;12319;49.204;8.116;2023-04-28T06:10:07;13.60;93.60
24164;DHT22;12319;49.204;8.116;2023-04-28T06:12:33;13.60;94.00
24164;DHT22;12319;49.204;8.116;2023-04-28T06:14:58;13.50;93.70
24164;DHT22;12319;49.204;8.116;2023-04-28T06:17:24;13.50;93.80
24164;DHT22;12319;49.204;8.116;2023-04-28T06:19:49;13.50;93.90
24164;DHT22;12319;49.204;8.116;2023-04-28T06:22:18;13.50;94.40
24164;DHT22;12319;49.204;8.116;2023-04-28T06:24:44;13.50;94.30
24164;DHT22;12319;49.204;8.116;2023-04-28T06:27:09;13.50;94.40
24164;DHT22;12319;49.204;8.116;2023-04-28T06:29:35;13.60;95.00
24164;DHT22;12319;49.204;8.116;2023-04-28T06:32:00;13.50;95.60
24164;DHT22;12319;49.204;8.116;2023-04-28T06:34:26;13.60;95.40
24164;DHT22;12319;49.204;8.116;2023-04-28T06:36:53;13.60;95.20
24164;DHT22;12319;49.204;8.116;2023-04-28T06:39:20;13.60;95.10
24164;DHT22;12319;49.204;8.116;2023-04-28T06:41:45;13.60;95.50
24164;DHT22;12319;49.204;8.116;2023-04-28T06:44:11;13.60;95.80
24164;DHT22;12319;49.204;8.116;2023-04-28T06:46:37;13.70;95.80
24164;DHT22;12319;49.204;8.116;2023-04-28T06:49:03;13.60;96.40
24164;DHT22;12319;49.204;8.116;2023-04-28T06:51:30;13.60;96.20
24164;DHT22;12319;49.204;8.116;2023-04-28T06:53:57;13.60;96.20
24164;DHT22;12319;49.204;8.116;2023-04-28T06:56:23;13.60;96.00
24164;DHT22;12319;49.204;8.116;2023-04-28T06:58:49;13.60;96.00
24164;DHT22;12319;49.204;8.116;2023-04-28T07:01:15;13.60;96.10
24164;DHT22;12319;49.204;8.116;2023-04-28T07:03:41;13.60;96.00
24164;DHT22;12319;49.204;8.116;2023-04-28T07:06:07;14.30;96.20
24164;DHT22;12319;49.204;8.116;2023-04-28T07:08:33;13.70;96.00
24164;DHT22;12319;49.204;8.116;2023-04-28T07:10:59;13.70;96.10
24164;DHT22;12319;49.204;8.116;2023-04-28T07:13:29;13.70;96.10
24164;DHT22;12319;49.204;8.116;2023-04-28T07:15:55;13.70;96.10
24164;DHT22;12319;49.204;8.116;2023-04-28T07:18:20;13.70;96.30
24164;DHT22;12319;49.204;8.116;2023-04-28T07:20:46;13.80;96.30
24164;DHT22;12319;49.204;8.116;2023-04-28T07:23:12;13.90;96.40
24164;DHT22;12319;49.204;8.116;2023-04-28T07:25:38;13.90;96.30
24164;DHT22;12319;49.204;8.116;2023-04-28T07:28:05;14.00;96.40
24164;DHT22;12319;49.204;8.116;2023-04-28T07:30:31;14.10;96.50
24164;DHT22;12319;49.204;8.116;2023-04-28T07:32:57;14.10;96.40
24164;DHT22;12319;49.204;8.116;2023-04-28T07:35:23;14.30;96.60
24164;DHT22;12319;49.204;8.116;2023-04-28T07:37:48;14.30;96.50
24164;DHT22;12319;49.204;8.116;2023-04-28T07:40:15;14.40;96.50
24164;DHT22;12319;49.204;8.116;2023-04-28T07:42:40;14.40;96.50
24164;DHT22;12319;49.204;8.116;2023-04-28T07:45:06;14.50;96.50
24164;DHT22;12319;49.204;8.116;2023-04-28T07:47:32;14.50;96.50
24164;DHT22;12319;49.204;8.116;2023-04-28T07:49:58;14.60;96.50
24164;DHT22;12319;49.204;8.116;2023-04-28T07:52:25;14.50;96.40
24164;DHT22;12319;49.204;8.116;2023-04-28T07:54:50;14.70;96.50
24164;DHT22;12319;49.204;8.116;2023-04-28T07:57:16;14.90;96.60
24164;DHT22;12319;49.204;8.116;2023-04-28T07:59:41;14.70;96.40
24164;DHT22;12319;49.204;8.116;2023-04-28T08:02:07;15.30;96.70
24164;DHT22;12319;49.204;8.116;2023-04-28T08:04:32;14.80;96.40
24164;DHT22;12319;49.204;8.116;2023-04-28T08:06:59;14.90;96.70
24164;DHT22;12319;49.204;8.116;2023-04-28T08:09:25;14.90;96.70
24164;DHT22;12319;49.204;8.116;2023-04-28T08:11:51;14.90;96.60
24164;DHT22;12319;49.204;8.116;2023-04-28T08:14:16;15.00;97.00
24164;DHT22;12319;49.204;8.116;2023-04-28T08:16:42;15.10;97.40
24164;DHT22;12319;49.204;8.116;2023-04-28T08:19:08;15.00;97.50
24164;DHT22;12319;49.204;8.116;2023-04-28T08:21:33;15.00;97.20
24164;DHT22;12319;49.204;8.116;2023-04-28T08:23:59;15.10;97.60
24164;DHT22;12319;49.204;8.116;2023-04-28T08:26:25;15.10;97.60
24164;DHT22;12319;49.204;8.116;2023-04-28T08:28:51;15.20;97.80
24164;DHT22;12319;49.204;8.116;2023-04-28T08:31:17;15.40;98.10
24164;DHT22;12319;49.204;8.116;2023-04-28T08:33:42;15.40;97.70
24164;DHT22;12319;49.204;8.116;2023-04-28T08:36:09;15.50;97.70
24164;DHT22;12319;49.204;8.116;2023-04-28T08:38:39;15.60;97.50
24164;DHT22;12319;49.204;8.116;2023-04-28T08:41:05;15.60;97.90
24164;DHT22;12319;49.204;8.116;2023-04-28T08:43:35;15.70;98.50
24164;DHT22;12319;49.204;8.116;2023-04-28T08:46:05;15.80;98.10
24164;DHT22;12319;49.204;8.116;2023-04-28T08:48:41;15.90;99.00
24164;DHT22;12319;49.204;8.116;2023-04-28T08:51:07;16.00;98.50
24164;DHT22;12319;49.204;8.116;2023-04-28T08:53:36;15.90;98.70
24164;DHT22;12319;49.204;8.116;2023-04-28T08:56:04;15.90;98.40
24164;DHT22;12319;49.204;8.116;2023-04-28T08:58:31;15.90;98.30
24164;DHT22;12319;49.204;8.116;2023-04-28T09:00:57;16.00;98.80
24164;DHT22;12319;49.204;8.116;2023-04-28T09:03:22;16.10;99.20
24164;DHT22;12319;49.204;8.116;2023-04-28T09:05:48;16.20;99.40
24164;DHT22;12319;49.204;8.116;2023-04-28T09:08:14;16.30;99.10
24164;DHT22;12319;49.204;8.116;2023-04-28T09:10:40;16.50;99.20
24164;DHT22;12319;49.204;8.116;2023-04-28T09:13:06;16.70;99.40
24164;DHT22;12319;49.204;8.116;2023-04-28T09:15:36;16.70;99.20
24164;DHT22;12319;49.204;8.116;2023-04-28T09:18:03;16.80;99.20
24164;DHT22;12319;49.204;8.116;2023-04-28T09:20:30;16.80;99.00
24164;DHT22;12319;49.204;8.116;2023-04-28T09:23:12;16.90;98.90
24164;DHT22;12319;49.204;8.116;2023-04-28T09:25:38;17.10;99.10
24164;DHT22;12319;49.204;8.116;2023-04-28T09:28:20;17.30;98.90
24164;DHT22;12319;49.204;8.116;2023-04-28T09:30:48;17.40;99.00
24164;DHT22;12319;49.204;8.116;2023-04-28T09:33:14;17.50;98.80
24164;DHT22;12319;49.204;8.116;2023-04-28T09:35:43;17.80;99.10
24164;DHT22;12319;49.204;8.116;2023-04-28T09:38:13;18.10;98.80
24164;DHT22;12319;49.204;8.116;2023-04-28T09:40:54;18.10;98.20
24164;DHT22;12319;49.204;8.116;2023-04-28T09:45:49;18.00;97.80
24164;DHT22;12319;49.204;8.116;2023-04-28T09:48:15;18.20;98.10
24164;DHT22;12319;49.204;8.116;2023-04-28T09:50:41;18.10;98.10
24164;DHT22;12319;49.204;8.116;2023-04-28T09:53:10;18.00;97.80
24164;DHT22;12319;49.204;8.116;2023-04-28T09:55:43;17.90;98.30
24164;DHT22;12319;49.204;8.116;2023-04-28T09:58:11;17.90;98.40
24164;DHT22;12319;49.204;8.116;2023-04-28T10:00:38;17.80;98.20
24164;DHT22;12319;49.204;8.116;2023-04-28T10:03:06;17.80;98.50
24164;DHT22;12319;49.204;8.116;2023-04-28T10:05:32;17.70;98.50
24164;DHT22;12319;49.204;8.116;2023-04-28T10:08:01;17.60;98.70
24164;DHT22;12319;49.204;8.116;2023-04-28T10:10:26;17.50;99.30
24164;DHT22;12319;49.204;8.116;2023-04-28T10:12:53;17.30;99.00
24164;DHT22;12319;49.204;8.116;2023-04-28T10:15:19;17.20;99.00
24164;DHT22;12319;49.204;8.116;2023-04-28T10:17:46;17.10;99.00
24164;DHT22;12319;49.204;8.116;2023-04-28T10:20:14;17.00;99.20
24164;DHT22;12319;49.204;8.116;2023-04-28T10:25:47;16.90;99.80
24164;DHT22;12319;49.204;8.116;2023-04-28T10:28:14;16.80;99.60
24164;DHT22;12319;49.204;8.116;2023-04-28T10:30:40;16.80;99.70
24164;DHT22;12319;49.204;8.116;2023-04-28T10:35:43;16.90;99.90
24164;DHT22;12319;49.204;8.116;2023-04-28T10:38:18;17.00;99.90
24164;DHT22;12319;49.204;8.116;2023-04-28T10:40:50;17.20;99.90
24164;DHT22;12319;49.204;8.116;2023-04-28T10:56:21;17.70;99.90
24164;DHT22;12319;49.204;8.116;2023-04-28T10:58:56;17.70;99.90
24164;DHT22;12319;49.204;8.116;2023-04-28T11:01:28;17.70;99.90
24164;DHT22;12319;49.204;8.116;2023-04-28T11:03:57;17.80;99.90
24164;DHT22;12319;49.204;8.116;2023-04-28T11:06:29;17.90;99.90
24164;DHT22;12319;49.204;8.116;2023-04-28T11:17:05;18.10;99.90
24164;DHT22;12319;49.204;8.116;2023-04-28T11:19:33;18.20;99.90
24164;DHT22;12319;49.204;8.116;2023-04-28T11:22:04;18.30;99.90
24164;DHT22;12319;49.204;8.116;2023-04-28T11:24:34;18.30;99.90
24164;DHT22;12319;49.204;8.116;2023-04-28T11:27:00;18.30;99.90
24164;DHT22;12319;49.204;8.116;2023-04-28T11:29:37;18.40;99.90
24164;DHT22;12319;49.204;8.116;2023-04-28T11:32:07;18.40;99.90
24164;DHT22;12319;49.204;8.116;2023-04-28T11:34:34;18.40;99.90
24164;DHT22;12319;49.204;8.116;2023-04-28T11:37:01;18.40;99.90
24164;DHT22;12319;49.204;8.116;2023-04-28T11:39:31;18.50;99.90
24164;DHT22;12319;49.204;8.116;2023-04-28T11:41:59;18.60;99.90
24164;DHT22;12319;49.204;8.116;2023-04-28T11:44:27;18.80;99.90
24164;DHT22;12319;49.204;8.116;2023-04-28T11:47:00;18.90;99.90
24164;DHT22;12319;49.204;8.116;2023-04-28T11:52:08;19.10;99.80
24164;DHT22;12319;49.204;8.116;2023-04-28T11:54:35;19.10;99.90
24164;DHT22;12319;49.204;8.116;2023-04-28T11:57:02;19.10;99.50
24164;DHT22;12319;49.204;8.116;2023-04-28T11:59:34;19.00;99.80
24164;DHT22;12319;49.204;8.116;2023-04-28T12:02:01;18.80;99.70
24164;DHT22;12319;49.204;8.116;2023-04-28T12:04:34;18.70;99.80
24164;DHT22;12319;49.204;8.116;2023-04-28T12:07:06;18.60;99.90
24164;DHT22;12319;49.204;8.116;2023-04-28T12:09:33;18.60;99.90
24164;DHT22;12319;49.204;8.116;2023-04-28T12:12:01;18.70;99.90
24164;DHT22;12319;49.204;8.116;2023-04-28T12:14:27;18.80;99.90
24164;DHT22;12319;49.204;8.116;2023-04-28T12:16:53;18.90;99.90
24164;DHT22;12319;49.204;8.116;2023-04-28T12:19:19;19.00;99.90
24164;DHT22;12319;49.204;8.116;2023-04-28T12:22:02;19.20;99.90
24164;DHT22;12319;49.204;8.116;2023-04-28T12:24:28;19.30;99.90
24164;DHT22;12319;49.204;8.116;2023-04-28T12:26:54;19.40;99.90
24164;DHT22;12319;49.204;8.116;2023-04-28T12:29:40;19.40;99.90
24164;DHT22;12319;49.204;8.116;2023-04-28T12:32:07;19.50;99.90
24164;DHT22;12319;49.204;8.116;2023-04-28T12:34:33;19.70;99.90
24164;DHT22;12319;49.204;8.116;2023-04-28T12:37:00;19.90;99.90
24164;DHT22;12319;49.204;8.116;2023-04-28T12:39:26;20.10;99.70
24164;DHT22;12319;49.204;8.116;2023-04-28T12:41:52;20.40;99.50
24164;DHT22;12319;49.204;8.116;2023-04-28T12:44:19;20.40;99.20
24164;DHT22;12319;49.204;8.116;2023-04-28T12:46:45;20.60;98.70
24164;DHT22;12319;49.204;8.116;2023-04-28T12:49:11;20.60;98.10
24164;DHT22;12319;49.204;8.116;2023-04-28T12:51:37;20.60;98.10
24164;DHT22;12319;49.204;8.116;2023-04-28T12:54:04;20.70;98.10
24164;DHT22;12319;49.204;8.116;2023-04-28T12:56:29;20.80;97.60
24164;DHT22;12319;49.204;8.116;2023-04-28T12:58:55;20.90;97.20
24164;DHT22;12319;49.204;8.116;2023-04-28T13:01:20;21.00;96.90
24164;DHT22;12319;49.204;8.116;2023-04-28T13:03:46;21.10;96.70
24164;DHT22;12319;49.204;8.116;2023-04-28T13:06:12;21.30;96.60
24164;DHT22;12319;49.204;8.116;2023-04-28T13:08:38;21.40;96.50
24164;DHT22;12319;49.204;8.116;2023-04-28T13:11:04;21.50;96.10
24164;DHT22;12319;49.204;8.116;2023-04-28T13:13:30;21.60;95.80
24164;DHT22;12319;49.204;8.116;2023-04-28T13:15:55;21.80;95.80
24164;DHT22;12319;49.204;8.116;2023-04-28T13:18:22;22.20;95.60
24164;DHT22;12319;49.204;8.116;2023-04-28T13:20:48;22.40;94.80
24164;DHT22;12319;49.204;8.116;2023-04-28T13:23:13;22.50;94.20
24164;DHT22;12319;49.204;8.116;2023-04-28T13:25:39;22.70;93.80
24164;DHT22;12319;49.204;8.116;2023-04-28T13:28:04;22.70;93.30
24164;DHT22;12319;49.204;8.116;2023-04-28T13:30:30;22.70;93.10
24164;DHT22;12319;49.204;8.116;2023-04-28T13:32:55;22.80;92.70
24164;DHT22;12319;49.204;8.116;2023-04-28T13:35:21;22.70;92.80
24164;DHT22;12319;49.204;8.116;2023-04-28T13:37:48;22.70;92.80
24164;DHT22;12319;49.204;8.116;2023-04-28T13:40:14;22.60;92.50
24164;DHT22;12319;49.204;8.116;2023-04-28T13:42:39;22.50;92.20
24164;DHT22;12319;49.204;8.116;2023-04-28T13:45:05;22.40;91.90
24164;DHT22;12319;49.204;8.116;2023-04-28T13:47:31;22.30;91.90
24164;DHT22;12319;49.204;8.116;2023-04-28T13:49:57;22.20;92.30
24164;DHT22;12319;49.204;8.116;2023-04-28T13:52:24;22.10;92.30
24164;DHT22;12319;49.204;8.116;2023-04-28T13:54:50;22.00;91.40
24164;DHT22;12319;49.204;8.116;2023-04-28T13:57:16;21.80;90.70
24164;DHT22;12319;49.204;8.116;2023-04-28T13:59:41;21.60;91.50
24164;DHT22;12319;49.204;8.116;2023-04-28T14:02:07;21.40;91.90
24164;DHT22;12319;49.204;8.116;2023-04-28T14:04:35;21.20;92.90
24164;DHT22;12319;49.204;8.116;2023-04-28T14:07:01;21.00;93.20
24164;DHT22;12319;49.204;8.116;2023-04-28T14:09:27;20.90;93.40
24164;DHT22;12319;49.204;8.116;2023-04-28T14:11:52;20.80;93.60
24164;DHT22;12319;49.204;8.116;2023-04-28T14:14:21;20.90;94.00
24164;DHT22;12319;49.204;8.116;2023-04-28T14:16:46;21.40;94.30
24164;DHT22;12319;49.204;8.116;2023-04-28T14:19:12;21.90;94.40
24164;DHT22;12319;49.204;8.116;2023-04-28T14:21:42;22.30;93.70
24164;DHT22;12319;49.204;8.116;2023-04-28T14:24:07;22.70;93.40
24164;DHT22;12319;49.204;8.116;2023-04-28T14:26:34;23.00;92.90
24164;DHT22;12319;49.204;8.116;2023-04-28T14:29:00;23.10;92.30
24164;DHT22;12319;49.204;8.116;2023-04-28T14:31:26;23.10;92.10
24164;DHT22;12319;49.204;8.116;2023-04-28T14:33:53;23.00;91.50
24164;DHT22;12319;49.204;8.116;2023-04-28T14:36:18;22.80;91.40
24164;DHT22;12319;49.204;8.116;2023-04-28T14:38:44;22.50;91.30
24164;DHT22;12319;49.204;8.116;2023-04-28T14:41:10;22.40;91.40
24164;DHT22;12319;49.204;8.116;2023-04-28T14:43:35;22.20;91.50
24164;DHT22;12319;49.204;8.116;2023-04-28T14:46:02;22.00;91.50
24164;DHT22;12319;49.204;8.116;2023-04-28T14:48:29;21.80;91.60
24164;DHT22;12319;49.204;8.116;2023-04-28T14:50:56;21.60;91.50
24164;DHT22;12319;49.204;8.116;2023-04-28T14:53:22;21.40;91.70
24164;DHT22;12319;49.204;8.116;2023-04-28T14:55:47;21.30;92.10
24164;DHT22;12319;49.204;8.116;2023-04-28T14:58:13;21.20;92.40
24164;DHT22;12319;49.204;8.116;2023-04-28T15:00:39;21.10;92.60
24164;DHT22;12319;49.204;8.116;2023-04-28T15:03:05;21.00;92.50
24164;DHT22;12319;49.204;8.116;2023-04-28T15:05:31;21.00;92.40
24164;DHT22;12319;49.204;8.116;2023-04-28T15:07:59;20.90;92.50
24164;DHT22;12319;49.204;8.116;2023-04-28T15:10:35;20.90;92.50
24164;DHT22;12319;49.204;8.116;2023-04-28T15:13:01;20.80;92.80
24164;DHT22;12319;49.204;8.116;2023-04-28T15:15:27;20.70;92.70
24164;DHT22;12319;49.204;8.116;2023-04-28T15:17:52;20.70;92.80
24164;DHT22;12319;49.204;8.116;2023-04-28T15:20:25;20.60;92.70
24164;DHT22;12319;49.204;8.116;2023-04-28T15:22:51;20.60;92.70
24164;DHT22;12319;49.204;8.116;2023-04-28T15:25:16;20.50;92.90
24164;DHT22;12319;49.204;8.116;2023-04-28T15:27:42;20.40;92.90
24164;DHT22;12319;49.204;8.116;2023-04-28T15:30:08;20.30;93.00
24164;DHT22;12319;49.204;8.116;2023-04-28T15:32:34;20.30;93.20
24164;DHT22;12319;49.204;8.116;2023-04-28T15:34:59;20.20;93.20
24164;DHT22;12319;49.204;8.116;2023-04-28T15:37:43;20.10;93.20
24164;DHT22;12319;49.204;8.116;2023-04-28T15:40:10;20.20;93.70
24164;DHT22;12319;49.204;8.116;2023-04-28T15:42:36;20.00;93.50
24164;DHT22;12319;49.204;8.116;2023-04-28T15:45:03;19.90;94.00
24164;DHT22;12319;49.204;8.116;2023-04-28T15:47:29;20.00;94.40
24164;DHT22;12319;49.204;8.116;2023-04-28T15:49:56;20.10;94.50
24164;DHT22;12319;49.204;8.116;2023-04-28T15:52:23;20.20;94.50
24164;DHT22;12319;49.204;8.116;2023-04-28T15:54:48;20.40;95.00
24164;DHT22;12319;49.204;8.116;2023-04-28T15:57:14;20.50;94.70